sensor_id;sensor_type;location;lat;lon;timestamp;P1;durP1;ratioP1;P2;durP2;ratioP2
37303;SDS011;23188;51.188;16.374;2022-12-01T00:03:15;54.88;;;33.92;;
37303;SDS011;23188;51.188;16.374;2022-12-01T00:07:16;58.78;;;36.17;;
37303;SDS011;23188;51.188;16.374;2022-12-01T00:11:17;59.65;;;37.50;;
37303;SDS011;23188;51.188;16.374;2022-12-01T00:15:19;58.60;;;33.00;;
37303;SDS011;23188;51.188;16.374;2022-12-01T00:19:24;52.15;;;34.75;;
37303;SDS011;23188;51.188;16.374;2022-12-01T00:23:26;63.40;;;38.00;;
37303;SDS011;23188;51.188;16.374;2022-12-01T00:27:27;66.53;;;41.77;;
37303;SDS011;23188;51.188;16.374;2022-12-01T00:31:28;66.53;;;39.92;;
37303;SDS011;23188;51.188;16.374;2022-12-01T00:35:30;59.27;;;34.33;;
37303;SDS011;23188;51.188;16.374;2022-12-01T00:39:31;67.50;;;35.65;;
37303;SDS011;23188;51.188;16.374;2022-12-01T00:43:32;64.62;;;34.50;;
37303;SDS011;23188;51.188;16.374;2022-12-01T00:47:33;62.38;;;38.17;;
37303;SDS011;23188;51.188;16.374;2022-12-01T00:51:35;70.25;;;40.33;;
37303;SDS011;23188;51.188;16.374;2022-12-01T00:55:36;62.78;;;34.20;;
37303;SDS011;23188;51.188;16.374;2022-12-01T00:59:37;61.42;;;36.20;;
37303;SDS011;23188;51.188;16.374;2022-12-01T01:03:38;59.45;;;36.20;;
37303;SDS011;23188;51.188;16.374;2022-12-01T01:07:39;59.53;;;36.55;;
37303;SDS011;23188;51.188;16.374;2022-12-01T01:11:40;59.50;;;33.95;;
37303;SDS011;23188;51.188;16.374;2022-12-01T01:15:42;54.58;;;33.40;;
37303;SDS011;23188;51.188;16.374;2022-12-01T01:19:43;56.40;;;35.13;;
37303;SDS011;23188;51.188;16.374;2022-12-01T01:23:44;64.92;;;38.10;;
37303;SDS011;23188;51.188;16.374;2022-12-01T01:27:45;65.83;;;33.63;;
37303;SDS011;23188;51.188;16.374;2022-12-01T01:31:46;62.10;;;36.73;;
37303;SDS011;23188;51.188;16.374;2022-12-01T01:35:47;59.23;;;33.05;;
37303;SDS011;23188;51.188;16.374;2022-12-01T01:39:48;63.25;;;36.98;;
37303;SDS011;23188;51.188;16.374;2022-12-01T01:43:50;67.58;;;41.02;;
37303;SDS011;23188;51.188;16.374;2022-12-01T01:48:24;57.73;;;33.65;;
37303;SDS011;23188;51.188;16.374;2022-12-01T01:52:25;72.62;;;40.00;;
37303;SDS011;23188;51.188;16.374;2022-12-01T01:56:28;72.00;;;39.23;;
37303;SDS011;23188;51.188;16.374;2022-12-01T02:00:30;62.53;;;34.08;;
37303;SDS011;23188;51.188;16.374;2022-12-01T02:04:35;62.73;;;35.35;;
37303;SDS011;23188;51.188;16.374;2022-12-01T02:08:51;58.42;;;34.27;;
37303;SDS011;23188;51.188;16.374;2022-12-01T02:12:55;56.68;;;32.00;;
37303;SDS011;23188;51.188;16.374;2022-12-01T02:21:59;60.08;;;37.28;;
37303;SDS011;23188;51.188;16.374;2022-12-01T02:26:15;60.35;;;34.73;;
37303;SDS011;23188;51.188;16.374;2022-12-01T02:30:57;57.30;;;32.60;;
37303;SDS011;23188;51.188;16.374;2022-12-01T02:39:56;60.58;;;37.60;;
37303;SDS011;23188;51.188;16.374;2022-12-01T02:48:26;57.03;;;37.93;;
37303;SDS011;23188;51.188;16.374;2022-12-01T02:52:33;68.25;;;38.38;;
37303;SDS011;23188;51.188;16.374;2022-12-01T02:56:35;54.10;;;32.13;;
37303;SDS011;23188;51.188;16.374;2022-12-01T03:00:36;63.42;;;33.63;;
37303;SDS011;23188;51.188;16.374;2022-12-01T03:09:24;57.93;;;32.28;;
37303;SDS011;23188;51.188;16.374;2022-12-01T03:13:21;56.98;;;35.45;;
37303;SDS011;23188;51.188;16.374;2022-12-01T03:17:45;65.80;;;35.52;;
37303;SDS011;23188;51.188;16.374;2022-12-01T03:22:13;56.58;;;35.10;;
37303;SDS011;23188;51.188;16.374;2022-12-01T03:26:18;50.60;;;33.40;;
37303;SDS011;23188;51.188;16.374;2022-12-01T03:30:23;60.85;;;36.40;;
37303;SDS011;23188;51.188;16.374;2022-12-01T03:34:28;72.95;;;43.35;;
37303;SDS011;23188;51.188;16.374;2022-12-01T03:38:38;60.05;;;37.45;;
37303;SDS011;23188;51.188;16.374;2022-12-01T03:42:45;60.53;;;36.97;;
37303;SDS011;23188;51.188;16.374;2022-12-01T03:46:53;62.55;;;32.55;;
37303;SDS011;23188;51.188;16.374;2022-12-01T03:55:29;48.10;;;31.33;;
37303;SDS011;23188;51.188;16.374;2022-12-01T03:59:34;45.52;;;27.35;;
37303;SDS011;23188;51.188;16.374;2022-12-01T04:03:38;55.65;;;31.68;;
37303;SDS011;23188;51.188;16.374;2022-12-01T04:11:53;47.60;;;28.20;;
37303;SDS011;23188;51.188;16.374;2022-12-01T04:16:12;45.40;;;31.70;;
37303;SDS011;23188;51.188;16.374;2022-12-01T04:20:14;52.48;;;29.55;;
37303;SDS011;23188;51.188;16.374;2022-12-01T04:24:15;52.70;;;32.38;;
37303;SDS011;23188;51.188;16.374;2022-12-01T04:28:16;44.85;;;26.27;;
37303;SDS011;23188;51.188;16.374;2022-12-01T04:32:17;57.15;;;31.95;;
37303;SDS011;23188;51.188;16.374;2022-12-01T04:41:00;62.95;;;35.73;;
37303;SDS011;23188;51.188;16.374;2022-12-01T04:45:16;49.65;;;29.05;;
37303;SDS011;23188;51.188;16.374;2022-12-01T04:49:17;51.58;;;33.60;;
37303;SDS011;23188;51.188;16.374;2022-12-01T04:53:20;42.75;;;33.02;;
37303;SDS011;23188;51.188;16.374;2022-12-01T04:57:21;53.83;;;31.23;;
37303;SDS011;23188;51.188;16.374;2022-12-01T05:01:22;50.45;;;31.40;;
37303;SDS011;23188;51.188;16.374;2022-12-01T05:05:23;57.03;;;34.23;;
37303;SDS011;23188;51.188;16.374;2022-12-01T05:09:25;55.05;;;34.43;;
37303;SDS011;23188;51.188;16.374;2022-12-01T05:13:26;44.83;;;30.12;;
37303;SDS011;23188;51.188;16.374;2022-12-01T05:17:30;44.27;;;27.50;;
37303;SDS011;23188;51.188;16.374;2022-12-01T05:21:31;61.85;;;35.10;;
37303;SDS011;23188;51.188;16.374;2022-12-01T05:30:01;48.48;;;31.52;;
37303;SDS011;23188;51.188;16.374;2022-12-01T05:34:03;46.40;;;29.48;;
37303;SDS011;23188;51.188;16.374;2022-12-01T05:38:06;47.62;;;29.15;;
37303;SDS011;23188;51.188;16.374;2022-12-01T05:42:07;46.85;;;25.80;;
37303;SDS011;23188;51.188;16.374;2022-12-01T05:46:08;40.15;;;26.50;;
37303;SDS011;23188;51.188;16.374;2022-12-01T05:50:17;47.58;;;26.77;;
37303;SDS011;23188;51.188;16.374;2022-12-01T05:54:19;49.23;;;28.98;;
37303;SDS011;23188;51.188;16.374;2022-12-01T05:58:36;51.10;;;32.23;;
37303;SDS011;23188;51.188;16.374;2022-12-01T06:02:38;47.80;;;30.43;;
37303;SDS011;23188;51.188;16.374;2022-12-01T06:06:41;47.25;;;32.50;;
37303;SDS011;23188;51.188;16.374;2022-12-01T06:10:42;54.00;;;34.03;;
37303;SDS011;23188;51.188;16.374;2022-12-01T06:14:44;58.80;;;36.90;;
37303;SDS011;23188;51.188;16.374;2022-12-01T06:18:45;58.30;;;32.65;;
37303;SDS011;23188;51.188;16.374;2022-12-01T06:22:47;53.40;;;35.13;;
37303;SDS011;23188;51.188;16.374;2022-12-01T06:26:48;52.15;;;30.45;;
37303;SDS011;23188;51.188;16.374;2022-12-01T06:30:49;44.83;;;31.68;;
37303;SDS011;23188;51.188;16.374;2022-12-01T06:34:51;49.90;;;30.08;;
37303;SDS011;23188;51.188;16.374;2022-12-01T06:38:52;51.63;;;32.45;;
37303;SDS011;23188;51.188;16.374;2022-12-01T06:42:53;54.88;;;32.73;;
37303;SDS011;23188;51.188;16.374;2022-12-01T06:46:55;53.60;;;31.25;;
37303;SDS011;23188;51.188;16.374;2022-12-01T06:50:57;56.85;;;36.73;;
37303;SDS011;23188;51.188;16.374;2022-12-01T06:55:00;56.65;;;32.85;;
37303;SDS011;23188;51.188;16.374;2022-12-01T06:59:03;51.83;;;33.98;;
37303;SDS011;23188;51.188;16.374;2022-12-01T07:03:04;50.60;;;33.70;;
37303;SDS011;23188;51.188;16.374;2022-12-01T07:07:05;55.75;;;32.03;;
37303;SDS011;23188;51.188;16.374;2022-12-01T07:11:16;58.70;;;32.80;;
37303;SDS011;23188;51.188;16.374;2022-12-01T07:15:17;57.20;;;37.85;;
37303;SDS011;23188;51.188;16.374;2022-12-01T07:19:18;49.30;;;31.77;;
37303;SDS011;23188;51.188;16.374;2022-12-01T07:23:20;53.08;;;31.45;;
37303;SDS011;23188;51.188;16.374;2022-12-01T07:27:21;50.60;;;33.55;;
37303;SDS011;23188;51.188;16.374;2022-12-01T07:31:22;53.10;;;32.93;;
37303;SDS011;23188;51.188;16.374;2022-12-01T07:35:23;54.63;;;33.33;;
37303;SDS011;23188;51.188;16.374;2022-12-01T07:39:24;49.38;;;33.08;;
37303;SDS011;23188;51.188;16.374;2022-12-01T07:43:26;54.65;;;33.28;;
37303;SDS011;23188;51.188;16.374;2022-12-01T07:47:27;56.63;;;31.37;;
37303;SDS011;23188;51.188;16.374;2022-12-01T07:51:28;54.63;;;33.30;;
37303;SDS011;23188;51.188;16.374;2022-12-01T07:55:29;56.15;;;36.35;;
37303;SDS011;23188;51.188;16.374;2022-12-01T07:59:32;52.50;;;31.20;;
37303;SDS011;23188;51.188;16.374;2022-12-01T08:03:34;58.38;;;35.30;;
37303;SDS011;23188;51.188;16.374;2022-12-01T08:07:36;58.87;;;34.43;;
37303;SDS011;23188;51.188;16.374;2022-12-01T08:11:37;55.80;;;31.55;;
37303;SDS011;23188;51.188;16.374;2022-12-01T08:15:38;49.95;;;33.42;;
37303;SDS011;23188;51.188;16.374;2022-12-01T08:19:54;47.15;;;31.57;;
37303;SDS011;23188;51.188;16.374;2022-12-01T08:27:58;52.83;;;32.13;;
37303;SDS011;23188;51.188;16.374;2022-12-01T08:32:00;51.58;;;34.10;;
37303;SDS011;23188;51.188;16.374;2022-12-01T08:36:02;54.48;;;33.33;;
37303;SDS011;23188;51.188;16.374;2022-12-01T08:40:05;72.37;;;31.62;;
37303;SDS011;23188;51.188;16.374;2022-12-01T08:44:08;58.80;;;37.60;;
37303;SDS011;23188;51.188;16.374;2022-12-01T08:48:10;54.00;;;31.15;;
37303;SDS011;23188;51.188;16.374;2022-12-01T08:52:11;56.63;;;33.95;;
37303;SDS011;23188;51.188;16.374;2022-12-01T08:56:16;58.00;;;34.25;;
37303;SDS011;23188;51.188;16.374;2022-12-01T09:00:30;73.55;;;37.28;;
37303;SDS011;23188;51.188;16.374;2022-12-01T09:04:31;62.43;;;33.60;;
37303;SDS011;23188;51.188;16.374;2022-12-01T09:08:32;46.28;;;31.60;;
37303;SDS011;23188;51.188;16.374;2022-12-01T09:12:35;45.78;;;31.97;;
37303;SDS011;23188;51.188;16.374;2022-12-01T09:16:36;53.13;;;33.67;;
37303;SDS011;23188;51.188;16.374;2022-12-01T09:20:48;47.62;;;30.17;;
37303;SDS011;23188;51.188;16.374;2022-12-01T09:24:49;48.65;;;33.95;;
37303;SDS011;23188;51.188;16.374;2022-12-01T09:28:54;58.92;;;32.75;;
37303;SDS011;23188;51.188;16.374;2022-12-01T09:32:58;53.98;;;31.93;;
37303;SDS011;23188;51.188;16.374;2022-12-01T09:37:00;46.37;;;29.92;;
37303;SDS011;23188;51.188;16.374;2022-12-01T09:49:58;54.38;;;33.98;;
37303;SDS011;23188;51.188;16.374;2022-12-01T09:54:13;48.92;;;29.23;;
37303;SDS011;23188;51.188;16.374;2022-12-01T09:58:23;48.87;;;32.42;;
37303;SDS011;23188;51.188;16.374;2022-12-01T10:02:53;53.30;;;34.95;;
37303;SDS011;23188;51.188;16.374;2022-12-01T10:16:02;59.48;;;34.53;;
37303;SDS011;23188;51.188;16.374;2022-12-01T10:24:42;61.83;;;37.55;;
37303;SDS011;23188;51.188;16.374;2022-12-01T10:37:26;57.45;;;40.52;;
37303;SDS011;23188;51.188;16.374;2022-12-01T10:41:30;66.20;;;43.65;;
37303;SDS011;23188;51.188;16.374;2022-12-01T10:45:39;56.50;;;33.37;;
37303;SDS011;23188;51.188;16.374;2022-12-01T10:49:41;60.78;;;37.10;;
37303;SDS011;23188;51.188;16.374;2022-12-01T10:53:42;57.40;;;37.83;;
37303;SDS011;23188;51.188;16.374;2022-12-01T10:57:43;55.35;;;37.17;;
37303;SDS011;23188;51.188;16.374;2022-12-01T11:01:47;80.10;;;46.68;;
37303;SDS011;23188;51.188;16.374;2022-12-01T11:05:50;45.65;;;31.15;;
37303;SDS011;23188;51.188;16.374;2022-12-01T11:14:24;55.43;;;31.40;;
37303;SDS011;23188;51.188;16.374;2022-12-01T11:18:45;51.80;;;32.93;;
37303;SDS011;23188;51.188;16.374;2022-12-01T11:22:46;60.38;;;37.53;;
37303;SDS011;23188;51.188;16.374;2022-12-01T11:31:06;58.33;;;36.90;;
37303;SDS011;23188;51.188;16.374;2022-12-01T11:43:35;57.43;;;31.33;;
37303;SDS011;23188;51.188;16.374;2022-12-01T11:47:56;54.48;;;33.70;;
37303;SDS011;23188;51.188;16.374;2022-12-01T11:52:09;44.35;;;30.70;;
37303;SDS011;23188;51.188;16.374;2022-12-01T12:00:40;50.28;;;33.33;;
37303;SDS011;23188;51.188;16.374;2022-12-01T12:09:27;53.00;;;32.17;;
37303;SDS011;23188;51.188;16.374;2022-12-01T12:31:52;54.47;;;36.83;;
37303;SDS011;23188;51.188;16.374;2022-12-01T12:36:33;55.75;;;36.58;;
37303;SDS011;23188;51.188;16.374;2022-12-01T12:40:53;55.17;;;36.28;;
37303;SDS011;23188;51.188;16.374;2022-12-01T12:49:46;70.15;;;42.58;;
37303;SDS011;23188;51.188;16.374;2022-12-01T12:54:53;58.38;;;38.35;;
37303;SDS011;23188;51.188;16.374;2022-12-01T13:06:40;61.98;;;39.27;;
37303;SDS011;23188;51.188;16.374;2022-12-01T13:10:52;56.35;;;37.05;;
37303;SDS011;23188;51.188;16.374;2022-12-01T13:15:05;56.85;;;36.88;;
37303;SDS011;23188;51.188;16.374;2022-12-01T13:19:21;66.95;;;35.08;;
37303;SDS011;23188;51.188;16.374;2022-12-01T13:23:28;66.17;;;34.55;;
37303;SDS011;23188;51.188;16.374;2022-12-01T13:27:32;48.83;;;33.05;;
37303;SDS011;23188;51.188;16.374;2022-12-01T13:31:43;53.00;;;32.55;;
37303;SDS011;23188;51.188;16.374;2022-12-01T13:35:50;52.33;;;33.80;;
37303;SDS011;23188;51.188;16.374;2022-12-01T13:39:54;52.48;;;35.70;;
37303;SDS011;23188;51.188;16.374;2022-12-01T13:52:48;51.58;;;33.70;;
37303;SDS011;23188;51.188;16.374;2022-12-01T13:57:00;52.23;;;33.80;;
37303;SDS011;23188;51.188;16.374;2022-12-01T14:09:43;48.38;;;32.33;;
37303;SDS011;23188;51.188;16.374;2022-12-01T14:13:49;62.17;;;36.35;;
37303;SDS011;23188;51.188;16.374;2022-12-01T14:18:17;45.35;;;31.00;;
37303;SDS011;23188;51.188;16.374;2022-12-01T14:26:43;48.60;;;31.37;;
37303;SDS011;23188;51.188;16.374;2022-12-01T14:31:06;49.27;;;31.95;;
37303;SDS011;23188;51.188;16.374;2022-12-01T14:34:54;55.88;;;34.08;;
37303;SDS011;23188;51.188;16.374;2022-12-01T14:43:26;47.65;;;28.98;;
37303;SDS011;23188;51.188;16.374;2022-12-01T14:47:51;48.05;;;28.05;;
37303;SDS011;23188;51.188;16.374;2022-12-01T14:52:16;42.08;;;27.25;;
37303;SDS011;23188;51.188;16.374;2022-12-01T14:56:28;28.80;;;19.50;;
37303;SDS011;23188;51.188;16.374;2022-12-01T15:00:33;33.53;;;21.33;;
37303;SDS011;23188;51.188;16.374;2022-12-01T15:09:13;40.20;;;22.87;;
37303;SDS011;23188;51.188;16.374;2022-12-01T15:17:32;31.95;;;20.27;;
37303;SDS011;23188;51.188;16.374;2022-12-01T15:21:36;37.85;;;23.18;;
37303;SDS011;23188;51.188;16.374;2022-12-01T15:25:39;38.05;;;23.32;;
37303;SDS011;23188;51.188;16.374;2022-12-01T15:29:45;32.40;;;21.90;;
37303;SDS011;23188;51.188;16.374;2022-12-01T15:33:47;29.90;;;20.57;;
37303;SDS011;23188;51.188;16.374;2022-12-01T15:37:51;26.87;;;21.40;;
37303;SDS011;23188;51.188;16.374;2022-12-01T15:41:53;34.83;;;22.45;;
37303;SDS011;23188;51.188;16.374;2022-12-01T15:45:59;32.00;;;20.02;;
37303;SDS011;23188;51.188;16.374;2022-12-01T15:50:04;36.73;;;24.37;;
37303;SDS011;23188;51.188;16.374;2022-12-01T15:54:10;37.35;;;22.75;;
37303;SDS011;23188;51.188;16.374;2022-12-01T15:58:22;34.13;;;22.87;;
37303;SDS011;23188;51.188;16.374;2022-12-01T16:02:30;30.02;;;20.72;;
37303;SDS011;23188;51.188;16.374;2022-12-01T16:06:34;36.80;;;23.50;;
37303;SDS011;23188;51.188;16.374;2022-12-01T16:10:38;32.13;;;20.43;;
37303;SDS011;23188;51.188;16.374;2022-12-01T16:14:51;39.63;;;23.65;;
37303;SDS011;23188;51.188;16.374;2022-12-01T16:23:22;33.15;;;22.58;;
37303;SDS011;23188;51.188;16.374;2022-12-01T16:27:25;31.73;;;21.27;;
37303;SDS011;23188;51.188;16.374;2022-12-01T16:31:30;32.17;;;20.23;;
37303;SDS011;23188;51.188;16.374;2022-12-01T16:35:32;40.83;;;21.42;;
37303;SDS011;23188;51.188;16.374;2022-12-01T16:39:33;31.07;;;20.97;;
37303;SDS011;23188;51.188;16.374;2022-12-01T16:43:34;31.75;;;22.00;;
37303;SDS011;23188;51.188;16.374;2022-12-01T16:47:35;36.05;;;22.07;;
37303;SDS011;23188;51.188;16.374;2022-12-01T16:51:36;39.60;;;26.60;;
37303;SDS011;23188;51.188;16.374;2022-12-01T16:55:41;38.05;;;26.17;;
37303;SDS011;23188;51.188;16.374;2022-12-01T16:59:56;38.42;;;24.47;;
37303;SDS011;23188;51.188;16.374;2022-12-01T17:03:57;38.40;;;25.70;;
37303;SDS011;23188;51.188;16.374;2022-12-01T17:07:59;45.35;;;29.87;;
37303;SDS011;23188;51.188;16.374;2022-12-01T17:12:00;35.92;;;24.82;;
37303;SDS011;23188;51.188;16.374;2022-12-01T17:16:02;33.48;;;24.12;;
37303;SDS011;23188;51.188;16.374;2022-12-01T17:20:06;38.13;;;26.68;;
37303;SDS011;23188;51.188;16.374;2022-12-01T17:24:08;36.15;;;24.20;;
37303;SDS011;23188;51.188;16.374;2022-12-01T17:28:09;40.17;;;25.35;;
37303;SDS011;23188;51.188;16.374;2022-12-01T17:32:10;38.65;;;24.77;;
37303;SDS011;23188;51.188;16.374;2022-12-01T17:36:13;38.45;;;26.30;;
37303;SDS011;23188;51.188;16.374;2022-12-01T17:40:15;33.50;;;22.75;;
37303;SDS011;23188;51.188;16.374;2022-12-01T17:44:16;34.83;;;24.40;;
37303;SDS011;23188;51.188;16.374;2022-12-01T17:48:17;40.00;;;26.17;;
37303;SDS011;23188;51.188;16.374;2022-12-01T17:52:18;34.60;;;24.43;;
37303;SDS011;23188;51.188;16.374;2022-12-01T17:56:20;31.73;;;22.32;;
37303;SDS011;23188;51.188;16.374;2022-12-01T18:00:21;38.05;;;24.87;;
37303;SDS011;23188;51.188;16.374;2022-12-01T18:04:22;34.43;;;23.57;;
37303;SDS011;23188;51.188;16.374;2022-12-01T18:08:24;34.27;;;24.63;;
37303;SDS011;23188;51.188;16.374;2022-12-01T18:12:27;48.87;;;30.95;;
37303;SDS011;23188;51.188;16.374;2022-12-01T18:16:29;86.63;;;53.20;;
37303;SDS011;23188;51.188;16.374;2022-12-01T18:20:31;86.42;;;54.63;;
37303;SDS011;23188;51.188;16.374;2022-12-01T18:24:32;79.10;;;43.87;;
37303;SDS011;23188;51.188;16.374;2022-12-01T18:28:34;56.00;;;36.93;;
37303;SDS011;23188;51.188;16.374;2022-12-01T18:32:36;50.08;;;28.47;;
37303;SDS011;23188;51.188;16.374;2022-12-01T18:36:38;41.02;;;26.23;;
37303;SDS011;23188;51.188;16.374;2022-12-01T18:40:41;40.30;;;27.17;;
37303;SDS011;23188;51.188;16.374;2022-12-01T18:44:42;44.65;;;28.47;;
37303;SDS011;23188;51.188;16.374;2022-12-01T18:48:44;59.48;;;33.23;;
37303;SDS011;23188;51.188;16.374;2022-12-01T18:52:53;43.35;;;29.12;;
37303;SDS011;23188;51.188;16.374;2022-12-01T18:56:54;41.37;;;27.40;;
37303;SDS011;23188;51.188;16.374;2022-12-01T19:00:58;47.73;;;30.60;;
37303;SDS011;23188;51.188;16.374;2022-12-01T19:05:00;49.38;;;32.85;;
37303;SDS011;23188;51.188;16.374;2022-12-01T19:09:03;54.38;;;33.78;;
37303;SDS011;23188;51.188;16.374;2022-12-01T19:13:08;52.67;;;33.73;;
37303;SDS011;23188;51.188;16.374;2022-12-01T19:17:09;40.08;;;26.50;;
37303;SDS011;23188;51.188;16.374;2022-12-01T19:21:11;38.88;;;25.85;;
37303;SDS011;23188;51.188;16.374;2022-12-01T19:25:15;42.40;;;29.67;;
37303;SDS011;23188;51.188;16.374;2022-12-01T19:29:16;61.80;;;34.73;;
37303;SDS011;23188;51.188;16.374;2022-12-01T19:33:18;60.67;;;36.73;;
37303;SDS011;23188;51.188;16.374;2022-12-01T19:37:19;43.30;;;28.45;;
37303;SDS011;23188;51.188;16.374;2022-12-01T19:41:20;49.25;;;28.75;;
37303;SDS011;23188;51.188;16.374;2022-12-01T19:45:23;36.28;;;24.00;;
37303;SDS011;23188;51.188;16.374;2022-12-01T19:49:24;40.55;;;25.60;;
37303;SDS011;23188;51.188;16.374;2022-12-01T19:53:26;36.53;;;23.18;;
37303;SDS011;23188;51.188;16.374;2022-12-01T19:57:27;39.10;;;25.08;;
37303;SDS011;23188;51.188;16.374;2022-12-01T20:01:28;41.13;;;25.37;;
37303;SDS011;23188;51.188;16.374;2022-12-01T20:05:30;37.33;;;23.40;;
37303;SDS011;23188;51.188;16.374;2022-12-01T20:09:32;35.95;;;23.95;;
37303;SDS011;23188;51.188;16.374;2022-12-01T20:13:34;34.13;;;21.40;;
37303;SDS011;23188;51.188;16.374;2022-12-01T20:17:38;30.05;;;20.05;;
37303;SDS011;23188;51.188;16.374;2022-12-01T20:21:39;33.00;;;21.30;;
37303;SDS011;23188;51.188;16.374;2022-12-01T20:25:43;34.90;;;19.67;;
37303;SDS011;23188;51.188;16.374;2022-12-01T20:29:44;30.30;;;19.37;;
37303;SDS011;23188;51.188;16.374;2022-12-01T20:33:45;26.48;;;19.42;;
37303;SDS011;23188;51.188;16.374;2022-12-01T20:37:47;20.92;;;14.50;;
37303;SDS011;23188;51.188;16.374;2022-12-01T20:41:48;35.38;;;21.25;;
37303;SDS011;23188;51.188;16.374;2022-12-01T20:45:49;37.83;;;21.97;;
37303;SDS011;23188;51.188;16.374;2022-12-01T20:49:51;29.07;;;20.75;;
37303;SDS011;23188;51.188;16.374;2022-12-01T20:53:52;27.07;;;18.95;;
37303;SDS011;23188;51.188;16.374;2022-12-01T20:57:53;25.00;;;18.02;;
37303;SDS011;23188;51.188;16.374;2022-12-01T21:01:54;27.13;;;17.67;;
37303;SDS011;23188;51.188;16.374;2022-12-01T21:05:57;24.45;;;17.62;;
37303;SDS011;23188;51.188;16.374;2022-12-01T21:09:59;23.87;;;18.30;;
37303;SDS011;23188;51.188;16.374;2022-12-01T21:14:00;22.02;;;17.95;;
37303;SDS011;23188;51.188;16.374;2022-12-01T21:18:04;24.72;;;18.05;;
37303;SDS011;23188;51.188;16.374;2022-12-01T21:22:11;34.65;;;23.73;;
37303;SDS011;23188;51.188;16.374;2022-12-01T21:26:13;30.70;;;19.40;;
37303;SDS011;23188;51.188;16.374;2022-12-01T21:30:19;26.93;;;15.40;;
37303;SDS011;23188;51.188;16.374;2022-12-01T21:34:25;28.73;;;16.90;;
37303;SDS011;23188;51.188;16.374;2022-12-01T21:38:30;26.45;;;16.85;;
37303;SDS011;23188;51.188;16.374;2022-12-01T21:42:31;25.50;;;18.02;;
37303;SDS011;23188;51.188;16.374;2022-12-01T21:46:32;27.07;;;18.10;;
37303;SDS011;23188;51.188;16.374;2022-12-01T21:50:34;25.90;;;19.10;;
37303;SDS011;23188;51.188;16.374;2022-12-01T21:54:35;32.98;;;22.95;;
37303;SDS011;23188;51.188;16.374;2022-12-01T21:58:36;33.30;;;22.90;;
37303;SDS011;23188;51.188;16.374;2022-12-01T22:02:45;38.05;;;24.57;;
37303;SDS011;23188;51.188;16.374;2022-12-01T22:06:53;56.35;;;33.45;;
37303;SDS011;23188;51.188;16.374;2022-12-01T22:11:00;52.05;;;28.50;;
37303;SDS011;23188;51.188;16.374;2022-12-01T22:15:29;32.17;;;22.82;;
37303;SDS011;23188;51.188;16.374;2022-12-01T22:19:39;31.37;;;21.77;;
37303;SDS011;23188;51.188;16.374;2022-12-01T22:23:44;26.60;;;18.82;;
37303;SDS011;23188;51.188;16.374;2022-12-01T22:27:46;31.48;;;18.17;;
37303;SDS011;23188;51.188;16.374;2022-12-01T22:31:47;41.65;;;23.57;;
37303;SDS011;23188;51.188;16.374;2022-12-01T22:35:49;33.08;;;19.87;;
37303;SDS011;23188;51.188;16.374;2022-12-01T22:39:55;25.90;;;19.12;;
37303;SDS011;23188;51.188;16.374;2022-12-01T22:43:56;24.00;;;16.50;;
37303;SDS011;23188;51.188;16.374;2022-12-01T22:48:01;26.77;;;15.93;;
37303;SDS011;23188;51.188;16.374;2022-12-01T22:52:09;23.32;;;17.20;;
37303;SDS011;23188;51.188;16.374;2022-12-01T23:00:32;19.65;;;15.05;;
37303;SDS011;23188;51.188;16.374;2022-12-01T23:04:40;18.45;;;12.90;;
37303;SDS011;23188;51.188;16.374;2022-12-01T23:08:44;22.40;;;15.30;;
37303;SDS011;23188;51.188;16.374;2022-12-01T23:12:46;19.67;;;15.35;;
37303;SDS011;23188;51.188;16.374;2022-12-01T23:16:55;19.55;;;13.40;;
37303;SDS011;23188;51.188;16.374;2022-12-01T23:21:06;22.13;;;16.80;;
37303;SDS011;23188;51.188;16.374;2022-12-01T23:25:10;26.60;;;16.67;;
37303;SDS011;23188;51.188;16.374;2022-12-01T23:29:15;29.85;;;20.62;;
37303;SDS011;23188;51.188;16.374;2022-12-01T23:33:18;31.97;;;20.05;;
37303;SDS011;23188;51.188;16.374;2022-12-01T23:37:44;32.80;;;22.13;;
37303;SDS011;23188;51.188;16.374;2022-12-01T23:41:40;33.33;;;21.35;;
37303;SDS011;23188;51.188;16.374;2022-12-01T23:45:45;33.78;;;20.17;;
37303;SDS011;23188;51.188;16.374;2022-12-01T23:49:52;28.07;;;20.12;;
37303;SDS011;23188;51.188;16.374;2022-12-01T23:53:59;27.48;;;19.12;;
37303;SDS011;23188;51.188;16.374;2022-12-01T23:58:05;29.60;;;20.80;;
